aviador You're here:

SCQP Decoded Metar

in
Report Time2017-10-22 17:00:00
UTC Time2017-10-22 17:12:22
Flight Rules vfr VFR
Wind230° at 08 kt
W.Rank230° ranks 10
Current wind is above 230° avg. (5.9)
Visibility9999 m
Phenomena:N/A
Clouds:N/A
Expected CloudBase > 4,000 ft AGL from Temp-Dew spread
CeilingNone
Temp18°C
Dew Point08°C (52% RH)
AAT14.7°C
QNH1017 hPa
Raw Report
METAR SCQP 221700Z 23008KT 200V280 CAVOK 18/08 Q1017=

Extra information for SCQP:More info

Social comments